Arcadia, Michigan
Current Conditions -  °F | °C
As of 7:15 AM on Monday 24 Nov 2014 (Local Time) from KFKS Reporting Station
Light Rain Light Rain  
Wind Chill: 45°   Ceiling: 200
Heat Index: 45°   Visibility: 1.5mi
Dew Point: 45°   Wind: 0mph
Humidity: 100%   Direction: NA
Pressure: 28.97"   Gusts: NA
Location:  44.49°N, 86.23°W
Report Text: KFKS 241215Z AUTO 00000KT 1 1/2SM -RA OVC002 07/07 A2897 RMK AO2 T00700070
Loading
Personal Weather Stations






























Interactive Weather Map New forecast layout! Learn more

10-Day Weather Forecast

Advertisements
Track Severe Weather on mobile